createdAt,value
2017-11-01T00:00:19.095Z,1014.41
2017-11-01T00:01:29.122Z,1014.48
2017-11-01T00:02:38.986Z,1014.42
2017-11-01T00:03:48.045Z,1014.44
2017-11-01T00:04:58.621Z,1014.35
2017-11-01T00:06:08.205Z,1014.39
2017-11-01T00:07:18.313Z,1014.45
2017-11-01T00:08:29.143Z,1014.39
2017-11-01T00:09:39.030Z,1014.36
2017-11-01T00:10:48.036Z,1014.39
2017-11-01T00:11:57.928Z,1014.44
2017-11-01T00:13:08.586Z,1014.37
2017-11-01T00:14:18.789Z,1014.23
2017-11-01T00:15:28.851Z,1014.36
2017-11-01T00:16:39.416Z,1014.42
2017-11-01T00:17:49.635Z,1014.39
2017-11-01T00:18:59.691Z,1014.41
2017-11-01T00:20:09.714Z,1014.36
2017-11-01T00:21:19.627Z,1014.38
2017-11-01T00:22:30.109Z,1014.38
2017-11-01T00:23:40.341Z,1014.46
2017-11-01T00:24:50.590Z,1014.38
2017-11-01T00:26:00.677Z,1014.32
2017-11-01T00:27:11.248Z,1014.38
2017-11-01T00:28:21.806Z,1014.32
2017-11-01T00:29:31.490Z,1014.35
2017-11-01T00:30:41.836Z,1014.43
2017-11-01T00:31:51.701Z,1014.41
2017-11-01T00:33:01.732Z,1014.43
2017-11-01T00:34:11.137Z,1014.39
2017-11-01T00:35:21.183Z,1014.38
2017-11-01T00:36:31.188Z,1014.38
2017-11-01T00:37:40.525Z,1014.32
2017-11-01T00:38:50.907Z,1014.27
2017-11-01T00:40:00.959Z,1014.36
2017-11-01T00:41:09.965Z,1014.3
2017-11-01T00:42:19.988Z,1014.34
2017-11-01T00:43:29.681Z,1014.37
2017-11-01T00:44:39.705Z,1014.34
2017-11-01T00:45:49.435Z,1014.35
2017-11-01T00:46:59.778Z,1014.33
2017-11-01T00:48:09.117Z,1014.31
2017-11-01T00:49:18.793Z,1014.31
2017-11-01T00:50:28.801Z,1014.3
2017-11-01T00:51:38.474Z,1014.3
2017-11-01T00:52:48.154Z,1014.31
2017-11-01T00:53:58.172Z,1014.37
2017-11-01T00:55:07.515Z,1014.32
2017-11-01T00:56:17.186Z,1014.27
2017-11-01T00:57:27.201Z,1014.37
2017-11-01T00:58:36.540Z,1014.27
2017-11-01T00:59:46.546Z,1014.27
2017-11-01T01:00:56.557Z,1014.29
2017-11-01T01:02:06.902Z,1014.26
2017-11-01T01:03:16.576Z,1014.32
2017-11-01T01:04:26.921Z,1014.27
2017-11-01T01:05:36.937Z,1014.31
2017-11-01T01:06:46.612Z,1014.2
2017-11-01T01:07:55.947Z,1014.2
2017-11-01T01:09:05.960Z,1014.22
2017-11-01T01:10:15.636Z,1014.27
2017-11-01T01:11:25.315Z,1014.26
2017-11-01T01:12:35.352Z,1014.18
2017-11-01T01:13:45.027Z,1014.14
2017-11-01T01:14:55.055Z,1014.12
2017-11-01T01:16:05.071Z,1014.12
2017-11-01T01:17:14.739Z,1014.08
2017-11-01T01:18:24.078Z,1014.04
2017-11-01T01:19:34.083Z,1014.11
2017-11-01T01:20:44.111Z,1014.13
2017-11-01T01:21:54.467Z,1014.23
2017-11-01T01:23:04.810Z,1014.09
2017-11-01T01:24:14.821Z,1014.14
2017-11-01T01:25:23.827Z,1014.17
2017-11-01T01:26:33.837Z,1014.12
2017-11-01T01:27:43.176Z,1014.05
2017-11-01T01:28:53.184Z,1014.05
2017-11-01T01:30:02.519Z,1014.09
2017-11-01T01:31:12.526Z,1014.08
2017-11-01T01:32:21.531Z,1014.11
2017-11-01T01:33:31.211Z,1014.14
2017-11-01T01:34:40.550Z,1014.16
2017-11-01T01:35:50.563Z,1014.14
2017-11-01T01:36:59.900Z,1014.13
2017-11-01T01:38:09.574Z,1014.12
2017-11-01T01:39:19.910Z,1014.31
2017-11-01T01:40:29.920Z,1014.15
2017-11-01T01:41:39.262Z,1014.17
2017-11-01T01:42:48.936Z,1014.18
2017-11-01T01:43:58.944Z,1014.15
2017-11-01T01:45:09.299Z,1014.16
2017-11-01T01:46:18.634Z,1014.17
2017-11-01T01:47:28.639Z,1014.15
2017-11-01T01:48:38.312Z,1014.23
2017-11-01T01:49:48.318Z,1014.25
2017-11-01T01:50:57.990Z,1014.27
2017-11-01T01:52:08.348Z,1014.18
2017-11-01T01:53:18.694Z,1014.16
2017-11-01T01:54:28.363Z,1014.13
2017-11-01T01:55:38.034Z,1014.12
2017-11-01T01:56:48.049Z,1014.18
2017-11-01T01:57:57.049Z,1014.15
2017-11-01T01:59:07.396Z,1014.15
2017-11-01T02:00:17.733Z,1014.19
2017-11-01T02:01:27.411Z,1014.13
2017-11-01T02:02:37.415Z,1014.1
2017-11-01T02:03:47.421Z,1014.13
2017-11-01T02:04:56.768Z,1014.04
2017-11-01T02:06:06.785Z,1014.02
2017-11-01T02:07:16.817Z,1014.02
2017-11-01T02:08:27.159Z,1014.08
2017-11-01T02:09:36.837Z,1014.01
2017-11-01T02:10:46.509Z,1014.05
2017-11-01T02:11:56.852Z,1014.01
2017-11-01T02:13:06.187Z,1014
2017-11-01T02:14:15.860Z,1013.97
2017-11-01T02:15:25.534Z,1014
2017-11-01T02:16:35.547Z,1013.95
2017-11-01T02:17:45.555Z,1013.94
2017-11-01T02:18:55.225Z,1013.92
2017-11-01T02:20:04.563Z,1013.95
2017-11-01T02:21:14.568Z,1013.86
2017-11-01T02:22:24.234Z,1013.93
2017-11-01T02:23:33.906Z,1013.95
2017-11-01T02:24:43.576Z,1013.95
2017-11-01T02:25:52.576Z,1013.92
2017-11-01T02:27:02.920Z,1014.02
2017-11-01T02:28:12.600Z,1014.01
2017-11-01T02:29:22.622Z,1014
2017-11-01T02:30:32.629Z,1014.06
2017-11-01T02:31:41.967Z,1014.01
2017-11-01T02:32:51.311Z,1014.12
2017-11-01T02:34:01.316Z,1014.06
2017-11-01T02:35:10.989Z,1013.99
2017-11-01T02:36:20.662Z,1013.97
2017-11-01T02:37:30.693Z,1014.03
2017-11-01T02:38:39.695Z,1014.08
2017-11-01T02:39:49.703Z,1014.04
2017-11-01T02:40:59.724Z,1014.12
2017-11-01T02:42:41.478Z,1014.04
2017-11-01T02:43:51.842Z,1014.08
2017-11-01T02:45:01.877Z,1014.09
2017-11-01T02:46:11.221Z,1014.09
2017-11-01T02:47:21.589Z,1014.08
2017-11-01T02:48:31.280Z,1014.09
2017-11-01T02:49:41.659Z,1014.15
2017-11-01T02:50:51.005Z,1014.02
2017-11-01T02:52:00.682Z,1014.04
2017-11-01T02:53:10.366Z,1014.06
2017-11-01T02:54:20.036Z,1014.08
2017-11-01T02:55:30.064Z,1014.2
2017-11-01T02:56:39.741Z,1014.01
2017-11-01T02:57:49.090Z,1014.05
2017-11-01T02:58:59.441Z,1013.96
2017-11-01T03:00:09.126Z,1014.01
2017-11-01T03:01:19.147Z,1013.97
2017-11-01T03:02:29.196Z,1013.99
2017-11-01T03:03:39.215Z,1013.96
2017-11-01T03:04:49.226Z,1013.95
2017-11-01T03:05:59.251Z,1013.99
2017-11-01T03:07:09.269Z,1014.02
2017-11-01T03:08:19.283Z,1014.03
2017-11-01T03:09:28.969Z,1013.99
2017-11-01T03:10:38.645Z,1013.94
2017-11-01T03:11:48.321Z,1014.01
2017-11-01T03:12:58.338Z,1013.95
2017-11-01T03:14:08.016Z,1013.97
2017-11-01T03:15:17.695Z,1013.96
2017-11-01T03:16:27.370Z,1013.93
2017-11-01T03:17:36.714Z,1013.93
2017-11-01T03:18:46.064Z,1013.91
2017-11-01T03:19:55.741Z,1013.9
2017-11-01T03:21:05.421Z,1013.86
2017-11-01T03:22:15.460Z,1013.89
2017-11-01T03:23:25.621Z,1013.88
2017-11-01T03:24:34.972Z,1013.87
2017-11-01T03:25:45.352Z,1013.97
2017-11-01T03:26:55.360Z,1013.93
2017-11-01T03:28:05.706Z,1013.89
2017-11-01T03:29:15.715Z,1013.89
2017-11-01T03:30:25.752Z,1013.87
2017-11-01T03:31:35.435Z,1013.87
2017-11-01T03:32:45.109Z,1013.95
2017-11-01T03:33:55.115Z,1013.95
2017-11-01T03:35:04.797Z,1013.94
2017-11-01T03:36:14.816Z,1013.85
2017-11-01T03:37:24.491Z,1013.81
2017-11-01T03:38:34.166Z,1013.9
2017-11-01T03:39:44.537Z,1013.86
2017-11-01T03:40:54.545Z,1013.84
2017-11-01T03:42:04.894Z,1013.87
2017-11-01T03:43:14.607Z,1013.85
2017-11-01T03:44:24.281Z,1013.87
2017-11-01T03:45:33.956Z,1013.72
2017-11-01T03:46:43.959Z,1013.79
2017-11-01T03:47:53.978Z,1013.85
2017-11-01T03:49:03.319Z,1013.81
2017-11-01T03:50:13.331Z,1013.82
2017-11-01T03:51:23.352Z,1013.85
2017-11-01T03:52:33.696Z,1013.84
2017-11-01T03:53:43.369Z,1013.83
2017-11-01T03:54:53.048Z,1013.9
2017-11-01T03:56:02.393Z,1013.75
2017-11-01T03:57:12.086Z,1013.73
2017-11-01T03:58:22.100Z,1013.77
2017-11-01T03:59:31.773Z,1013.82
2017-11-01T04:00:41.460Z,1013.71
2017-11-01T04:01:50.807Z,1013.67
2017-11-01T04:03:01.155Z,1013.72
2017-11-01T04:04:11.166Z,1013.76
2017-11-01T04:05:21.512Z,1013.7
2017-11-01T04:06:30.853Z,1013.74
2017-11-01T04:07:40.526Z,1013.68
2017-11-01T04:08:50.205Z,1013.72
2017-11-01T04:09:59.886Z,1013.68
2017-11-01T04:11:09.233Z,1013.66
2017-11-01T04:12:19.581Z,1013.57
2017-11-01T04:13:28.976Z,1013.61
2017-11-01T04:14:39.345Z,1013.65
2017-11-01T04:15:49.692Z,1013.63
2017-11-01T04:16:59.714Z,1013.67
2017-11-01T04:18:09.048Z,1013.58
2017-11-01T04:19:18.391Z,1013.59
2017-11-01T04:20:28.412Z,1013.59
2017-11-01T04:21:38.423Z,1013.68
2017-11-01T04:22:47.762Z,1013.6
2017-11-01T04:23:57.775Z,1013.64
2017-11-01T04:25:07.450Z,1013.62
2017-11-01T04:26:17.144Z,1013.64
2017-11-01T04:27:26.825Z,1013.73
2017-11-01T04:28:36.511Z,1013.7
2017-11-01T04:29:46.191Z,1013.68
2017-11-01T04:30:55.528Z,1013.64
2017-11-01T04:32:05.220Z,1013.67
2017-11-01T04:33:15.237Z,1013.71
2017-11-01T04:34:25.267Z,1013.7
2017-11-01T04:35:35.690Z,1013.66
2017-11-01T04:36:45.698Z,1013.68
2017-11-01T04:37:55.714Z,1013.56
2017-11-01T04:39:06.059Z,1013.61
2017-11-01T04:40:15.400Z,1013.56
2017-11-01T04:41:25.739Z,1013.57
2017-11-01T04:42:35.413Z,1013.55
2017-11-01T04:43:45.089Z,1013.54
2017-11-01T04:44:55.107Z,1013.57
2017-11-01T04:46:04.794Z,1013.57
2017-11-01T04:47:14.476Z,1013.54
2017-11-01T04:48:23.814Z,1013.55
2017-11-01T04:49:33.492Z,1013.54
2017-11-01T04:50:43.519Z,1013.46
2017-11-01T04:51:53.198Z,1013.53
2017-11-01T04:53:03.216Z,1013.54
2017-11-01T04:54:13.223Z,1013.53
2017-11-01T04:55:23.570Z,1013.54
2017-11-01T04:56:33.606Z,1013.58
2017-11-01T04:57:43.641Z,1013.51
2017-11-01T04:58:53.649Z,1013.59
2017-11-01T05:00:04.001Z,1013.61
2017-11-01T05:01:14.022Z,1013.57
2017-11-01T05:02:24.040Z,1013.63
2017-11-01T05:03:34.393Z,1013.56
2017-11-01T05:04:44.414Z,1013.57
2017-11-01T05:05:54.100Z,1013.6
2017-11-01T05:07:04.458Z,1013.59
2017-11-01T05:08:14.499Z,1013.6
2017-11-01T05:09:24.517Z,1013.61
2017-11-01T05:10:34.892Z,1013.71
2017-11-01T05:11:44.570Z,1013.67
2017-11-01T05:12:54.948Z,1013.65
2017-11-01T05:14:05.001Z,1013.7
2017-11-01T05:15:15.018Z,1013.67
2017-11-01T05:16:25.049Z,1013.66
2017-11-01T05:17:35.768Z,1013.75
2017-11-01T05:18:45.486Z,1013.77
2017-11-01T05:19:55.616Z,1013.67
2017-11-01T05:21:05.934Z,1013.69
2017-11-01T05:22:15.274Z,1013.73
2017-11-01T05:23:25.334Z,1013.74
2017-11-01T05:24:35.344Z,1013.71
2017-11-01T05:25:45.688Z,1013.69
2017-11-01T05:26:56.042Z,1013.68
2017-11-01T05:28:06.054Z,1013.62
2017-11-01T05:29:15.736Z,1013.65
2017-11-01T05:30:25.418Z,1013.65
2017-11-01T05:31:35.430Z,1013.65
2017-11-01T05:32:45.444Z,1013.65
2017-11-01T05:33:55.147Z,1013.65
2017-11-01T05:35:04.485Z,1013.63
2017-11-01T05:36:14.495Z,1013.62
2017-11-01T05:37:24.170Z,1013.62
2017-11-01T05:38:34.518Z,1013.59
2017-11-01T05:39:44.540Z,1013.64
2017-11-01T05:40:54.556Z,1013.66
2017-11-01T05:42:03.903Z,1013.66
2017-11-01T05:43:13.580Z,1013.64
2017-11-01T05:44:23.597Z,1013.61
2017-11-01T05:45:33.273Z,1013.65
2017-11-01T05:46:42.944Z,1013.71
2017-11-01T05:47:53.304Z,1013.61
2017-11-01T05:49:02.646Z,1013.67
2017-11-01T05:50:12.666Z,1013.58
2017-11-01T05:51:22.361Z,1013.66
2017-11-01T05:52:32.373Z,1013.68
2017-11-01T05:53:42.718Z,1013.68
2017-11-01T05:54:52.728Z,1013.67
2017-11-01T05:56:02.741Z,1013.59
2017-11-01T05:57:12.413Z,1013.66
2017-11-01T05:58:22.090Z,1013.75
2017-11-01T05:59:31.097Z,1013.78
2017-11-01T06:00:41.443Z,1013.82
2017-11-01T06:01:51.790Z,1013.74
2017-11-01T06:03:02.142Z,1013.75
2017-11-01T06:04:12.162Z,1013.8
2017-11-01T06:05:22.185Z,1013.81
2017-11-01T06:06:32.194Z,1013.8
2017-11-01T06:07:42.212Z,1013.81
2017-11-01T06:08:52.566Z,1013.79
2017-11-01T06:10:02.920Z,1013.79
2017-11-01T06:11:12.594Z,1013.87
2017-11-01T06:12:21.936Z,1013.8
2017-11-01T06:13:31.608Z,1013.86
2017-11-01T06:14:41.962Z,1013.89
2017-11-01T06:15:51.637Z,1013.83
2017-11-01T06:17:02.018Z,1013.84
2017-11-01T06:18:11.729Z,1013.84
2017-11-01T06:19:21.801Z,1013.91
2017-11-01T06:20:31.811Z,1013.84
2017-11-01T06:21:41.505Z,1013.74
2017-11-01T06:22:52.006Z,1013.82
2017-11-01T06:24:02.435Z,1013.78
2017-11-01T06:25:11.793Z,1013.8
2017-11-01T06:26:21.818Z,1013.83
2017-11-01T06:27:30.845Z,1013.84
2017-11-01T06:28:40.529Z,1013.97
2017-11-01T06:29:50.884Z,1013.91
2017-11-01T06:31:00.564Z,1013.9
2017-11-01T06:32:10.590Z,1013.94
2017-11-01T06:33:20.261Z,1013.91
2017-11-01T06:34:30.320Z,1013.94
2017-11-01T06:35:39.996Z,1014.02
2017-11-01T06:36:50.354Z,1013.99
2017-11-01T06:37:59.367Z,1013.99
2017-11-01T06:39:09.377Z,1013.99
2017-11-01T06:40:19.392Z,1014.04
2017-11-01T06:41:29.065Z,1014.05
2017-11-01T06:42:39.423Z,1014.07
2017-11-01T06:43:48.813Z,1014.04
2017-11-01T06:44:59.212Z,1014.01
2017-11-01T06:46:09.230Z,1014.08
2017-11-01T06:47:18.902Z,1014.03
2017-11-01T06:48:29.249Z,1014.03
2017-11-01T06:49:38.935Z,1014.08
2017-11-01T06:50:49.290Z,1014.06
2017-11-01T06:51:59.635Z,1014
2017-11-01T06:53:10.039Z,1014.05
2017-11-01T06:54:19.720Z,1014.04
2017-11-01T06:55:29.730Z,1014.05
2017-11-01T06:56:39.462Z,1013.97
2017-11-01T06:57:49.144Z,1014.01
2017-11-01T06:58:59.497Z,1014.09
2017-11-01T07:00:09.929Z,1014.01
2017-11-01T07:01:19.643Z,1014.04
2017-11-01T07:02:29.660Z,1014.05
2017-11-01T07:03:43.167Z,1014.02
2017-11-01T07:04:53.250Z,1014.06
2017-11-01T07:06:03.137Z,1014.09
2017-11-01T07:07:13.148Z,1014.13
2017-11-01T07:08:22.497Z,1014.14
2017-11-01T07:09:32.622Z,1014.19
2017-11-01T07:10:41.998Z,1014.21
2017-11-01T07:11:51.710Z,1014.29
2017-11-01T07:13:01.412Z,1014.26
2017-11-01T07:14:11.467Z,1014.33
2017-11-01T07:15:21.823Z,1014.31
2017-11-01T07:16:32.178Z,1014.33
2017-11-01T07:17:42.537Z,1014.36
2017-11-01T07:18:51.889Z,1014.37
2017-11-01T07:20:01.902Z,1014.4
2017-11-01T07:21:12.252Z,1014.37
2017-11-01T07:22:22.263Z,1014.42
2017-11-01T07:23:32.282Z,1014.44
2017-11-01T07:24:41.961Z,1014.51
2017-11-01T07:25:52.307Z,1014.45
2017-11-01T07:27:02.318Z,1014.51
2017-11-01T07:28:12.675Z,1014.44
2017-11-01T07:29:22.358Z,1014.52
2017-11-01T07:30:31.763Z,1014.54
2017-11-01T07:31:41.780Z,1014.57
2017-11-01T07:32:51.800Z,1014.6
2017-11-01T07:34:01.807Z,1014.63
2017-11-01T07:35:11.485Z,1014.57
2017-11-01T07:36:21.161Z,1014.56
2017-11-01T07:37:30.509Z,1014.66
2017-11-01T07:38:40.870Z,1014.71
2017-11-01T07:39:49.874Z,1014.59
2017-11-01T07:40:59.886Z,1014.59
2017-11-01T07:42:09.578Z,1014.58
2017-11-01T07:43:19.271Z,1014.61
2017-11-01T07:44:29.286Z,1014.62
2017-11-01T07:45:39.316Z,1014.61
2017-11-01T07:46:48.681Z,1014.57
2017-11-01T07:47:58.357Z,1014.54
2017-11-01T07:49:08.413Z,1014.61
2017-11-01T07:50:18.088Z,1014.57
2017-11-01T07:51:28.103Z,1014.53
2017-11-01T07:52:38.121Z,1014.61
2017-11-01T07:53:47.826Z,1014.62
2017-11-01T07:54:57.503Z,1014.61
2017-11-01T07:56:07.521Z,1014.65
2017-11-01T07:57:17.595Z,1014.68
2017-11-01T07:58:27.953Z,1014.63
2017-11-01T07:59:37.974Z,1014.62
2017-11-01T08:00:47.315Z,1014.68
2017-11-01T08:01:57.001Z,1014.62
2017-11-01T08:03:06.343Z,1014.65
2017-11-01T08:04:16.019Z,1014.62
2017-11-01T08:05:26.038Z,1014.69
2017-11-01T08:06:36.397Z,1014.65
2017-11-01T08:07:46.080Z,1014.65
2017-11-01T08:08:56.102Z,1014.64
2017-11-01T08:10:06.115Z,1014.69
2017-11-01T08:11:16.133Z,1014.66
2017-11-01T08:12:25.834Z,1014.61
2017-11-01T08:13:35.883Z,1014.69
2017-11-01T08:14:45.560Z,1014.69
2017-11-01T08:15:55.572Z,1014.72
2017-11-01T08:17:05.596Z,1014.73
2017-11-01T08:18:15.292Z,1014.72
2017-11-01T08:19:24.627Z,1014.71
2017-11-01T08:20:34.322Z,1014.73
2017-11-01T08:21:44.345Z,1014.75
2017-11-01T08:22:53.686Z,1014.74
2017-11-01T08:24:03.086Z,1014.83
2017-11-01T08:25:13.115Z,1014.79
2017-11-01T08:26:22.122Z,1014.8
2017-11-01T08:27:32.200Z,1014.76
2017-11-01T08:28:41.898Z,1014.77
2017-11-01T08:29:51.962Z,1014.78
2017-11-01T08:31:01.342Z,1014.68
2017-11-01T08:32:10.687Z,1014.65
2017-11-01T08:33:20.371Z,1014.65
2017-11-01T08:34:30.416Z,1014.65
2017-11-01T08:35:40.098Z,1014.61
2017-11-01T08:36:49.779Z,1014.6
2017-11-01T08:37:59.497Z,1014.6
2017-11-01T08:39:09.249Z,1014.56
2017-11-01T08:40:19.615Z,1014.55
2017-11-01T08:41:29.286Z,1014.51
2017-11-01T08:42:39.328Z,1014.52
2017-11-01T08:43:49.454Z,1014.52
2017-11-01T08:44:59.901Z,1014.55
2017-11-01T08:46:09.919Z,1014.53
2017-11-01T08:47:19.597Z,1014.52
2017-11-01T08:48:29.615Z,1014.53
2017-11-01T08:49:39.312Z,1014.64
2017-11-01T08:50:48.991Z,1014.57
2017-11-01T08:51:59.001Z,1014.53
2017-11-01T08:53:09.030Z,1014.56
2017-11-01T08:54:19.045Z,1014.54
2017-11-01T08:55:28.788Z,1014.57
2017-11-01T08:56:38.913Z,1014.65
2017-11-01T08:57:48.755Z,1014.5
2017-11-01T08:58:58.439Z,1014.55
2017-11-01T09:00:08.721Z,1014.44
2017-11-01T09:01:18.560Z,1014.5
2017-11-01T09:02:28.380Z,1014.47
2017-11-01T09:03:37.775Z,1014.41
2017-11-01T09:04:47.941Z,1014.44
2017-11-01T09:05:57.746Z,1014.48
2017-11-01T09:07:08.180Z,1014.59
2017-11-01T09:08:17.994Z,1014.5
2017-11-01T09:09:28.649Z,1014.5
2017-11-01T09:10:39.176Z,1014.54
2017-11-01T09:11:49.734Z,1014.5
2017-11-01T09:12:59.909Z,1014.45
2017-11-01T09:14:09.525Z,1014.52
2017-11-01T09:15:19.865Z,1014.44
2017-11-01T09:16:30.287Z,1014.54
2017-11-01T09:17:40.024Z,1014.47
2017-11-01T09:18:49.485Z,1014.44
2017-11-01T09:19:59.628Z,1014.46
2017-11-01T09:21:09.366Z,1014.44
2017-11-01T09:22:19.284Z,1014.45
2017-11-01T09:23:29.415Z,1014.46
2017-11-01T09:24:38.141Z,1014.4
2017-11-01T09:25:48.344Z,1014.47
2017-11-01T09:26:58.454Z,1014.43
2017-11-01T09:28:08.469Z,1014.41
2017-11-01T09:29:17.536Z,1014.38
2017-11-01T09:30:26.931Z,1014.47
2017-11-01T09:31:37.323Z,1014.28
2017-11-01T09:32:47.723Z,1014.32
2017-11-01T09:33:57.815Z,1014.25
2017-11-01T09:35:07.169Z,1014.31
2017-11-01T09:36:17.191Z,1014.46
2017-11-01T09:37:27.212Z,1014.33
2017-11-01T09:38:37.674Z,1014.3
2017-11-01T09:39:47.725Z,1014.27
2017-11-01T09:40:57.426Z,1014.36
2017-11-01T09:42:07.174Z,1014.41
2017-11-01T09:43:17.625Z,1014.41
2017-11-01T09:44:28.004Z,1014.41
2017-11-01T09:45:38.053Z,1014.39
2017-11-01T09:46:47.778Z,1014.41
2017-11-01T09:47:57.208Z,1014.33
2017-11-01T09:49:07.232Z,1014.32
2017-11-01T09:50:16.999Z,1014.21
2017-11-01T09:51:26.725Z,1014.26
2017-11-01T09:52:36.896Z,1014.27
2017-11-01T09:53:47.325Z,1014.24
2017-11-01T09:54:57.924Z,1014.19
2017-11-01T09:56:07.630Z,1014.31
2017-11-01T09:57:16.693Z,1014.23
2017-11-01T09:58:26.590Z,1014.33
2017-11-01T09:59:35.760Z,1014.33
2017-11-01T10:00:45.168Z,1014.32
2017-11-01T10:01:55.291Z,1014.31
2017-11-01T10:03:05.500Z,1014.28
2017-11-01T10:04:15.235Z,1014.36
2017-11-01T10:05:25.815Z,1014.32
2017-11-01T10:06:36.124Z,1014.18
2017-11-01T10:07:46.219Z,1014.21
2017-11-01T10:08:56.289Z,1014.22
2017-11-01T10:10:06.208Z,1014.19
2017-11-01T10:11:15.655Z,1014.31
2017-11-01T10:12:25.545Z,1014.23
2017-11-01T10:13:35.443Z,1014.19
2017-11-01T10:14:45.522Z,1014.2
2017-11-01T10:15:54.594Z,1014.26
2017-11-01T10:17:04.523Z,1014.26
2017-11-01T10:18:15.024Z,1014.25
2017-11-01T10:19:24.800Z,1014.23
2017-11-01T10:20:35.001Z,1014.19
2017-11-01T10:21:45.124Z,1014.13
2017-11-01T10:22:55.541Z,1014.2
2017-11-01T10:24:05.154Z,1014.2
2017-11-01T10:25:15.003Z,1014.23
2017-11-01T10:26:25.106Z,1014.24
2017-11-01T10:27:34.315Z,1014.1
2017-11-01T10:28:43.807Z,1014.13
2017-11-01T10:29:53.840Z,1014.06
2017-11-01T10:31:04.085Z,1014.05
2017-11-01T10:32:13.916Z,1014.1
2017-11-01T10:33:23.988Z,1014.33
2017-11-01T10:34:34.183Z,1014.31
2017-11-01T10:35:43.959Z,1014.28
2017-11-01T10:36:54.374Z,1014.29
2017-11-01T10:38:03.737Z,1014.3
2017-11-01T10:39:13.257Z,1014.34
2017-11-01T10:40:23.339Z,1014.4
2017-11-01T10:41:33.037Z,1014.28
2017-11-01T10:42:43.530Z,1014.28
2017-11-01T10:43:53.684Z,1014.2
2017-11-01T10:45:03.717Z,1014.14
2017-11-01T10:46:13.060Z,1014.06
2017-11-01T10:47:23.109Z,1014.07
2017-11-01T10:48:33.544Z,1014.11
2017-11-01T10:49:43.641Z,1014.11
2017-11-01T10:50:53.676Z,1014.2
2017-11-01T10:52:03.073Z,1014.16
2017-11-01T10:53:13.206Z,1014.1
2017-11-01T10:54:22.901Z,1014.06
2017-11-01T10:55:33.068Z,1014.07
2017-11-01T10:56:43.242Z,1014.16
2017-11-01T10:57:53.700Z,1014.17
2017-11-01T10:59:03.133Z,1014.08
2017-11-01T11:00:13.061Z,1014.06
2017-11-01T11:01:23.242Z,1014.1
2017-11-01T11:02:34.037Z,1014.11
2017-11-01T11:03:43.547Z,1014.17
2017-11-01T11:04:53.727Z,1014.18
2017-11-01T11:06:04.189Z,1014.11
2017-11-01T11:07:14.444Z,1014.11
2017-11-01T11:08:23.648Z,1014.1
2017-11-01T11:09:33.095Z,1014.14
2017-11-01T11:10:43.390Z,1014.14
2017-11-01T11:11:53.316Z,1014.14
2017-11-01T11:13:03.089Z,1014.14
2017-11-01T11:14:13.360Z,1014.03
2017-11-01T11:15:23.563Z,1014.04
2017-11-01T11:16:33.267Z,1014.1
2017-11-01T11:17:42.744Z,1014
2017-11-01T11:18:52.620Z,1014.01
2017-11-01T11:20:02.350Z,1014.03
2017-11-01T11:21:12.175Z,1014.04
2017-11-01T11:22:22.385Z,1014
2017-11-01T11:23:32.138Z,1013.99
2017-11-01T11:24:41.154Z,1014.01
2017-11-01T11:25:50.675Z,1013.98
2017-11-01T11:27:00.813Z,1013.97
2017-11-01T11:28:11.278Z,1013.9
2017-11-01T11:29:21.499Z,1013.88
2017-11-01T11:30:31.310Z,1013.9
2017-11-01T11:31:41.013Z,1013.85
2017-11-01T11:32:50.256Z,1013.78
2017-11-01T11:34:00.084Z,1013.78
2017-11-01T11:35:10.137Z,1013.82
2017-11-01T11:36:20.306Z,1013.83
2017-11-01T11:37:30.165Z,1013.84
2017-11-01T11:38:39.653Z,1013.75
2017-11-01T11:39:49.913Z,1013.75
2017-11-01T11:41:00.190Z,1013.73
2017-11-01T11:42:10.290Z,1013.82
2017-11-01T11:43:20.138Z,1013.72
2017-11-01T11:44:30.342Z,1013.77
2017-11-01T11:45:40.160Z,1013.75
2017-11-01T11:46:50.251Z,1013.63
2017-11-01T11:48:00.173Z,1013.62
2017-11-01T11:49:10.051Z,1013.63
2017-11-01T11:50:19.437Z,1013.67
2017-11-01T11:51:29.635Z,1013.67
2017-11-01T11:52:40.215Z,1013.55
2017-11-01T11:53:49.895Z,1013.53
2017-11-01T11:54:59.986Z,1013.52
2017-11-01T11:56:09.437Z,1013.49
2017-11-01T11:57:19.526Z,1013.49
2017-11-01T11:58:28.539Z,1013.44
2017-11-01T11:59:38.585Z,1013.51
2017-11-01T12:00:48.036Z,1013.49
2017-11-01T12:01:57.768Z,1013.52
2017-11-01T12:03:07.478Z,1013.44
2017-11-01T12:04:16.954Z,1013.5
2017-11-01T12:05:27.161Z,1013.47
2017-11-01T12:06:36.651Z,1013.45
2017-11-01T12:07:46.665Z,1013.41
2017-11-01T12:08:56.361Z,1013.46
2017-11-01T12:10:06.083Z,1013.36
2017-11-01T12:11:15.860Z,1013.35
2017-11-01T12:12:24.930Z,1013.32
2017-11-01T12:13:34.989Z,1013.29
2017-11-01T12:14:44.685Z,1013.32
2017-11-01T12:15:55.059Z,1013.26
2017-11-01T12:17:04.474Z,1013.32
2017-11-01T12:18:14.853Z,1013.3
2017-11-01T12:19:25.290Z,1013.29
2017-11-01T12:20:35.639Z,1013.22
2017-11-01T12:21:44.656Z,1013.16
2017-11-01T12:22:53.669Z,1013.1
2017-11-01T12:24:03.692Z,1013.04
2017-11-01T12:25:13.567Z,1013.03
2017-11-01T12:26:23.990Z,1013.06
2017-11-01T12:27:34.039Z,1013.06
2017-11-01T12:28:44.191Z,1013.1
2017-11-01T12:29:54.622Z,1013.07
2017-11-01T12:31:04.008Z,1013.1
2017-11-01T12:32:13.713Z,1013.09
2017-11-01T12:33:23.979Z,1013.08
2017-11-01T12:34:34.286Z,1013.07
2017-11-01T12:35:44.438Z,1012.99
2017-11-01T12:36:54.545Z,1012.97
2017-11-01T12:38:04.084Z,1012.9
2017-11-01T12:39:14.618Z,1012.89
2017-11-01T12:40:24.060Z,1012.9
2017-11-01T12:41:33.579Z,1012.91
2017-11-01T12:42:44.135Z,1012.91
2017-11-01T12:43:54.675Z,1012.88
2017-11-01T12:45:04.545Z,1012.86
2017-11-01T12:46:14.245Z,1012.79
2017-11-01T12:47:23.604Z,1012.82
2017-11-01T12:48:32.967Z,1012.87
2017-11-01T12:49:42.316Z,1012.94
2017-11-01T12:50:52.367Z,1012.89
2017-11-01T12:52:02.785Z,1012.87
2017-11-01T12:53:12.461Z,1012.89
2017-11-01T12:54:22.482Z,1012.77
2017-11-01T12:55:31.829Z,1012.78
2017-11-01T12:56:41.524Z,1012.75
2017-11-01T12:57:51.541Z,1012.75
2017-11-01T12:59:01.893Z,1012.8
2017-11-01T13:00:11.245Z,1012.76
2017-11-01T13:01:20.932Z,1012.74
2017-11-01T13:02:30.950Z,1012.66
2017-11-01T13:03:40.637Z,1012.7
2017-11-01T13:04:50.675Z,1012.64
2017-11-01T13:06:00.697Z,1012.66
2017-11-01T13:07:10.755Z,1012.62
2017-11-01T13:08:20.442Z,1012.66
2017-11-01T13:09:29.804Z,1012.65
2017-11-01T13:10:39.574Z,1012.67
2017-11-01T13:11:49.348Z,1012.7
2017-11-01T13:12:59.061Z,1012.73
2017-11-01T13:14:08.740Z,1012.8
2017-11-01T13:15:18.779Z,1012.72
2017-11-01T13:16:28.535Z,1012.72
2017-11-01T13:17:38.580Z,1012.72
2017-11-01T13:18:48.596Z,1012.64
2017-11-01T13:19:58.622Z,1012.56
2017-11-01T13:21:08.328Z,1012.61
2017-11-01T13:22:18.008Z,1012.49
2017-11-01T13:23:27.433Z,1012.52
2017-11-01T13:24:37.113Z,1012.53
2017-11-01T13:25:47.152Z,1012.53
2017-11-01T13:26:57.176Z,1012.54
2017-11-01T13:28:06.542Z,1012.54
2017-11-01T13:29:16.234Z,1012.66
2017-11-01T13:30:26.586Z,1012.61
2017-11-01T13:31:35.618Z,1012.64
2017-11-01T13:32:45.312Z,1012.62
2017-11-01T13:33:54.673Z,1012.6
2017-11-01T13:35:04.694Z,1012.51
2017-11-01T13:36:15.044Z,1012.59
2017-11-01T13:37:25.061Z,1012.56
2017-11-01T13:38:35.073Z,1012.53
2017-11-01T13:39:44.088Z,1012.48
2017-11-01T13:40:53.767Z,1012.45
2017-11-01T13:42:02.782Z,1012.38
2017-11-01T13:43:12.796Z,1012.35
2017-11-01T13:44:22.817Z,1012.35
2017-11-01T13:45:32.499Z,1012.31
2017-11-01T13:46:42.881Z,1012.32
2017-11-01T13:47:52.905Z,1012.37
2017-11-01T13:49:02.928Z,1012.33
2017-11-01T13:50:12.986Z,1012.3
2017-11-01T13:51:22.988Z,1012.33
2017-11-01T13:52:32.343Z,1012.33
2017-11-01T13:53:42.037Z,1012.3
2017-11-01T13:54:51.059Z,1012.3
2017-11-01T13:56:00.429Z,1012.3
2017-11-01T13:57:09.775Z,1012.23
2017-11-01T13:58:19.499Z,1012.2
2017-11-01T13:59:29.516Z,1012.2
2017-11-01T14:00:39.195Z,1012.13
2017-11-01T14:01:49.210Z,1012.07
2017-11-01T14:02:58.900Z,1012.06
2017-11-01T14:04:08.580Z,1012.11
2017-11-01T14:05:18.626Z,1012.03
2017-11-01T14:06:28.686Z,1012.05
2017-11-01T14:07:38.074Z,1012.06
2017-11-01T14:08:47.790Z,1012.09